Terminal Aerodrome Forecast
Issued by NWS

Home | Current Version | Previous Version | Graphics & Text | Print | Product List | Glossary On
Versions: 1 2 3 4 5 6 7 8 9 10 11 12 13 14 15 16 17 18 19 20 21
034
FTUS43 KGRB 221124
TAFAUW
TAF
KAUW 221124Z 2212/2312 19005KT P6SM VCSH SCT080 BKN150
      WS020/25035KT
     FM221500 16003KT P6SM VCSH SCT080 BKN120
     FM230200 32005KT P6SM SCT020 BKN070
     FM230600 34006KT P6SM BKN020=

USA.gov is the U.S. government's official web portal to all federal, state and local government web resources and services.